Ginga — JJ4054 — position and weather

sailwx.info

Track history (hours):
 
Tides and Currents Weather Stations Pressure Air Temp Water Temp Dewpoint Dewpoint Depression Visibility Wind Speed Wind Dir Waves Ship Positions

Ginga

Last reported at 2015-May-03 12:16 UTC. Time now 2015-May-03 12:51 UTC.
Position N 34°39' E 135°09'.

Length 28 m; draft 1.6 m.

Type: Other ship. MMSI: 431301704.

Date/timePositionNaut miles runAvg speedWind from/ knotsBaromVisibWave heightAir tempDewpointWater temp
2015-May-03 12:16N 34°39' E 135°09'710.2
2015-May-03 11:34N 34°32' E 135°07'13 9.7
2015-May-03 10:11N 34°20' E 134°59'711.0
2015-May-03 09:33N 34°26' E 135°03'8 8.2
2015-May-03 08:32N 34°35' E 135°06'7 6.8
2015-May-03 07:29N 34°38' E 134°58'4 4.2
2015-May-03 06:30N 34°38' E 135°03'0 0.0
2015-May-03 00:19N 34°38' E 135°03'3 3.9
2015-May-02 23:33N 34°38' E 134°59'9 8.6
2015-May-02 22:33N 34°38' E 135°10'1 0.7
2015-May-02 21:33N 34°39' E 135°09'0 0.0
2015-May-01 06:34N 34°39' E 135°10'0 0.0
2015-Apr-29 13:33N 34°39' E 135°09'12 9.6
2015-Apr-29 12:21N 34°36' E 134°56'6 0.8
2015-Apr-29 04:22N 34°38' E 135°03'2 1.9
2015-Apr-29 03:30N 34°37' E 135°01'1 1.0
2015-Apr-29 02:33N 34°38' E 135°02'1 0.9
2015-Apr-29 01:23N 34°38' E 135°03'2 0.6
2015-Apr-28 21:31N 34°38' E 135°00'5 5.6
2015-Apr-28 20:33N 34°35' E 135°06'3 3.2
2015-Apr-28 19:33N 34°36' E 135°10'3 0.3
2015-Apr-28 10:33N 34°39' E 135°09'4 1.8
2015-Apr-28 08:33N 34°37' E 135°06'4 3.6
2015-Apr-28 07:33N 34°39' E 135°09'0 0.0
2015-Apr-28 01:06N 34°39' E 135°09'610.4
2015-Apr-28 00:33N 34°37' E 135°03'1 1.4
2015-Apr-27 23:33N 34°36' E 135°04'2 0.7
2015-Apr-27 21:10N 34°38' E 135°03'4 5.8
2015-Apr-27 20:30N 34°37' E 134°59'9 9.0
2015-Apr-27 19:33N 34°37' E 135°09'2 2.0
2015-Apr-27 18:33N 34°39' E 135°09'0 0.1
2015-Apr-27 12:34N 34°39' E 135°10'11 8.0
2015-Apr-27 11:11N 34°37' E 134°57'7 1.3
2015-Apr-27 05:33N 34°33' E 135°05'1615.2
2015-Apr-27 04:32N 34°18' E 134°60'8 7.9
2015-Apr-27 03:33N 34°26' E 135°01'10 9.7
2015-Apr-27 02:34N 34°35' E 135°03'14 0.5
2015-Apr-26 00:24N 34°34' E 134°47'1213.7
2015-Apr-25 23:32N 34°37' E 135°01'7 7.4
2015-Apr-25 22:33N 34°33' E 135°08'1212.4
2015-Apr-25 21:33N 34°22' E 135°02'1312.3
2015-Apr-25 20:32N 34°10' E 134°59'8 8.4
2015-Apr-25 19:32N 34°19' E 134°59'1515.4
2015-Apr-25 18:33N 34°32' E 135°06'7 7.3
2015-Apr-25 17:34N 34°39' E 135°09'0 0.0
2015-Apr-24 23:33N 34°39' E 135°09'1111.5
2015-Apr-24 22:33N 34°37' E 134°56'10 9.8
2015-Apr-24 21:34N 34°35' E 135°07'5 4.6
2015-Apr-24 20:32N 34°39' E 135°09'0 0.0
2015-Apr-24 13:15N 34°39' E 135°09'913.5
2015-Apr-24 12:33N 34°30' E 135°06'11 7.7
2015-Apr-24 11:08N 34°21' E 134°59'915.8
2015-Apr-24 10:34N 34°29' E 135°05'6 5.8
2015-Apr-24 09:31N 34°35' E 135°04'  
Track history (hours):
 
Tides and Currents Weather Stations Pressure Air Temp Water Temp Dewpoint Dewpoint Depression Visibility Wind Speed Wind Dir Waves Ship Positions

Ginga

Last reported at 2015-May-03 12:16 UTC. Time now 2015-May-03 12:51 UTC.
Position N 34°39' E 135°09'.

Length 28 m; draft 1.6 m.

Type: Other ship. MMSI: 431301704.

Date/timePositionNaut miles runAvg speedWind from/ knotsBaromVisibWave heightAir tempDewpointWater temp
2015-May-03 12:16N 34°39' E 135°09'710.2
2015-May-03 11:34N 34°32' E 135°07'13 9.7
2015-May-03 10:11N 34°20' E 134°59'711.0
2015-May-03 09:33N 34°26' E 135°03'8 8.2
2015-May-03 08:32N 34°35' E 135°06'7 6.8
2015-May-03 07:29N 34°38' E 134°58'4 4.2
2015-May-03 06:30N 34°38' E 135°03'0 0.0
2015-May-03 00:19N 34°38' E 135°03'3 3.9
2015-May-02 23:33N 34°38' E 134°59'9 8.6
2015-May-02 22:33N 34°38' E 135°10'1 0.7
2015-May-02 21:33N 34°39' E 135°09'0 0.0
2015-May-01 06:34N 34°39' E 135°10'0 0.0
2015-Apr-29 13:33N 34°39' E 135°09'12 9.6
2015-Apr-29 12:21N 34°36' E 134°56'6 0.8
2015-Apr-29 04:22N 34°38' E 135°03'2 1.9
2015-Apr-29 03:30N 34°37' E 135°01'1 1.0
2015-Apr-29 02:33N 34°38' E 135°02'1 0.9
2015-Apr-29 01:23N 34°38' E 135°03'2 0.6
2015-Apr-28 21:31N 34°38' E 135°00'5 5.6
2015-Apr-28 20:33N 34°35' E 135°06'3 3.2
2015-Apr-28 19:33N 34°36' E 135°10'3 0.3
2015-Apr-28 10:33N 34°39' E 135°09'4 1.8
2015-Apr-28 08:33N 34°37' E 135°06'4 3.6
2015-Apr-28 07:33N 34°39' E 135°09'0 0.0
2015-Apr-28 01:06N 34°39' E 135°09'610.4
2015-Apr-28 00:33N 34°37' E 135°03'1 1.4
2015-Apr-27 23:33N 34°36' E 135°04'2 0.7
2015-Apr-27 21:10N 34°38' E 135°03'4 5.8
2015-Apr-27 20:30N 34°37' E 134°59'9 9.0
2015-Apr-27 19:33N 34°37' E 135°09'2 2.0
2015-Apr-27 18:33N 34°39' E 135°09'0 0.1
2015-Apr-27 12:34N 34°39' E 135°10'11 8.0
2015-Apr-27 11:11N 34°37' E 134°57'7 1.3
2015-Apr-27 05:33N 34°33' E 135°05'1615.2
2015-Apr-27 04:32N 34°18' E 134°60'8 7.9
2015-Apr-27 03:33N 34°26' E 135°01'10 9.7
2015-Apr-27 02:34N 34°35' E 135°03'14 0.5
2015-Apr-26 00:24N 34°34' E 134°47'1213.7
2015-Apr-25 23:32N 34°37' E 135°01'7 7.4
2015-Apr-25 22:33N 34°33' E 135°08'1212.4
2015-Apr-25 21:33N 34°22' E 135°02'1312.3
2015-Apr-25 20:32N 34°10' E 134°59'8 8.4
2015-Apr-25 19:32N 34°19' E 134°59'1515.4
2015-Apr-25 18:33N 34°32' E 135°06'7 7.3
2015-Apr-25 17:34N 34°39' E 135°09'0 0.0
2015-Apr-24 23:33N 34°39' E 135°09'1111.5
2015-Apr-24 22:33N 34°37' E 134°56'10 9.8
2015-Apr-24 21:34N 34°35' E 135°07'5 4.6
2015-Apr-24 20:32N 34°39' E 135°09'0 0.0
2015-Apr-24 13:15N 34°39' E 135°09'913.5
2015-Apr-24 12:33N 34°30' E 135°06'11 7.7
2015-Apr-24 11:08N 34°21' E 134°59'915.8
2015-Apr-24 10:34N 34°29' E 135°05'6 5.8
2015-Apr-24 09:31N 34°35' E 135°04'  

Dump ship's entire track history